createdAt,value
2017-08-31T00:01:01.893Z,4.97
2017-08-31T00:03:29.444Z,7.60
2017-08-31T00:05:56.988Z,6.83
2017-08-31T00:08:24.549Z,7.73
2017-08-31T00:10:52.093Z,7.67
2017-08-31T00:13:19.648Z,5.47
2017-08-31T00:15:47.192Z,7.83
2017-08-31T00:18:14.729Z,5.63
2017-08-31T00:20:42.285Z,6.87
2017-08-31T00:23:09.819Z,5.57
2017-08-31T00:25:37.431Z,4.87
2017-08-31T00:28:05.005Z,6.50
2017-08-31T00:30:32.563Z,4.63
2017-08-31T00:33:00.110Z,8.30
2017-08-31T00:35:27.646Z,10.33
2017-08-31T00:37:55.231Z,10.03
2017-08-31T00:40:22.769Z,5.33
2017-08-31T00:42:50.368Z,5.57
2017-08-31T00:45:17.930Z,5.17
2017-08-31T00:47:45.574Z,7.87
2017-08-31T00:50:13.130Z,5.60
2017-08-31T00:52:40.686Z,7.20
2017-08-31T00:55:08.252Z,5.93
2017-08-31T00:57:35.780Z,10.80
2017-08-31T01:00:03.328Z,5.97
2017-08-31T01:02:30.886Z,5.77
2017-08-31T01:04:58.436Z,6.13
2017-08-31T01:07:26.021Z,6.37
2017-08-31T01:09:53.571Z,9.13
2017-08-31T01:12:21.139Z,7.90
2017-08-31T01:14:48.665Z,9.40
2017-08-31T01:17:16.218Z,8.00
2017-08-31T01:19:43.769Z,7.63
2017-08-31T01:22:11.297Z,6.73
2017-08-31T01:24:38.856Z,6.20
2017-08-31T01:27:06.404Z,6.93
2017-08-31T01:29:33.933Z,6.70
2017-08-31T01:32:01.489Z,5.80
2017-08-31T01:34:29.060Z,8.17
2017-08-31T01:36:56.625Z,7.10
2017-08-31T01:39:24.161Z,7.20
2017-08-31T01:41:51.724Z,6.10
2017-08-31T01:44:19.273Z,5.93
2017-08-31T01:46:46.822Z,5.00
2017-08-31T01:49:14.387Z,5.53
2017-08-31T01:51:41.952Z,5.30
2017-08-31T01:54:09.489Z,4.47
2017-08-31T01:56:37.078Z,5.27
2017-08-31T01:59:04.604Z,6.97
2017-08-31T02:01:32.137Z,7.00
2017-08-31T02:03:59.689Z,4.77
2017-08-31T02:06:27.230Z,8.30
2017-08-31T02:08:54.793Z,4.80
2017-08-31T02:11:22.313Z,6.70
2017-08-31T02:13:49.872Z,4.80
2017-08-31T02:16:17.388Z,4.27
2017-08-31T02:18:44.928Z,6.10
2017-08-31T02:21:12.478Z,3.80
2017-08-31T02:23:40.030Z,4.30
2017-08-31T02:26:07.566Z,4.20
2017-08-31T02:28:35.143Z,4.53
2017-08-31T02:31:03.280Z,4.83
2017-08-31T02:33:30.818Z,4.63
2017-08-31T02:35:58.381Z,6.47
2017-08-31T02:38:25.929Z,4.80
2017-08-31T02:40:53.488Z,6.13
2017-08-31T02:43:21.093Z,6.00
2017-08-31T02:45:48.653Z,3.90
2017-08-31T02:48:16.215Z,5.63
2017-08-31T02:50:43.769Z,4.73
2017-08-31T02:53:11.334Z,4.93
2017-08-31T02:55:38.879Z,3.60
2017-08-31T02:58:06.449Z,3.23
2017-08-31T03:00:34.015Z,3.50
2017-08-31T03:03:01.579Z,3.90
2017-08-31T03:05:29.110Z,4.07
2017-08-31T03:07:56.959Z,3.30
2017-08-31T03:10:24.497Z,3.13
2017-08-31T03:12:52.123Z,3.80
2017-08-31T03:15:19.656Z,3.87
2017-08-31T03:17:47.204Z,2.90
2017-08-31T03:20:14.736Z,2.87
2017-08-31T03:22:42.296Z,3.93
2017-08-31T03:25:09.849Z,3.70
2017-08-31T03:27:37.374Z,3.20
2017-08-31T03:30:04.926Z,3.50
2017-08-31T03:32:32.467Z,3.27
2017-08-31T03:35:00.016Z,3.83
2017-08-31T03:37:27.545Z,5.90
2017-08-31T03:39:55.093Z,4.07
2017-08-31T03:42:22.631Z,4.80
2017-08-31T03:44:50.171Z,3.77
2017-08-31T03:47:17.719Z,4.23
2017-08-31T03:49:45.245Z,4.40
2017-08-31T03:52:12.833Z,3.30
2017-08-31T03:54:40.363Z,4.47
2017-08-31T03:57:07.914Z,5.30
2017-08-31T03:59:35.472Z,4.30
2017-08-31T04:02:03.017Z,3.27
2017-08-31T04:04:30.568Z,6.13
2017-08-31T04:06:58.110Z,3.83
2017-08-31T04:09:25.652Z,4.50
2017-08-31T04:11:53.190Z,5.40
2017-08-31T04:14:20.814Z,3.27
2017-08-31T04:16:48.402Z,3.43
2017-08-31T04:19:15.932Z,2.90
2017-08-31T04:21:43.492Z,2.47
2017-08-31T04:24:11.021Z,4.70
2017-08-31T04:26:38.579Z,2.70
2017-08-31T04:29:06.171Z,2.90
2017-08-31T04:31:33.731Z,3.43
2017-08-31T04:34:01.265Z,3.97
2017-08-31T04:36:28.800Z,5.37
2017-08-31T04:38:56.367Z,4.23
2017-08-31T04:41:23.910Z,4.93
2017-08-31T04:43:51.457Z,6.00
2017-08-31T04:46:19.000Z,4.67
2017-08-31T04:48:46.552Z,5.30
2017-08-31T04:51:14.107Z,4.70
2017-08-31T04:53:42.354Z,6.90
2017-08-31T04:56:10.680Z,8.37
2017-08-31T04:58:38.210Z,4.20
2017-08-31T05:01:05.773Z,4.00
2017-08-31T05:03:33.311Z,4.83
2017-08-31T05:06:00.870Z,4.10
2017-08-31T05:08:28.393Z,3.97
2017-08-31T05:10:55.952Z,3.80
2017-08-31T05:13:23.506Z,3.33
2017-08-31T05:15:51.037Z,4.53
2017-08-31T05:18:18.581Z,4.13
2017-08-31T05:20:46.113Z,3.40
2017-08-31T05:23:13.664Z,4.20
2017-08-31T05:25:41.202Z,8.70
2017-08-31T05:28:08.742Z,6.50
2017-08-31T05:30:36.286Z,5.70
2017-08-31T05:33:03.814Z,3.70
2017-08-31T05:35:31.374Z,6.70
2017-08-31T05:37:58.909Z,4.77
2017-08-31T05:40:26.460Z,5.57
2017-08-31T05:42:54.025Z,3.90
2017-08-31T05:45:21.592Z,5.20
2017-08-31T05:47:49.117Z,5.30
2017-08-31T05:50:16.661Z,5.03
2017-08-31T05:52:44.193Z,5.87
2017-08-31T05:55:11.750Z,9.47
2017-08-31T05:57:39.305Z,14.03
2017-08-31T06:00:06.864Z,8.50
2017-08-31T06:02:34.489Z,6.73
2017-08-31T06:05:02.041Z,10.50
2017-08-31T06:10:02.474Z,7.37
2017-08-31T06:12:30.004Z,6.00
2017-08-31T06:14:57.491Z,7.63
2017-08-31T06:17:24.978Z,9.40
2017-08-31T06:19:52.446Z,7.00
2017-08-31T06:22:19.936Z,7.60
2017-08-31T06:24:47.417Z,7.40
2017-08-31T06:27:14.913Z,5.30
2017-08-31T06:29:42.408Z,7.10
2017-08-31T06:32:09.891Z,7.37
2017-08-31T06:34:37.388Z,7.10
2017-08-31T06:37:04.856Z,6.40
2017-08-31T06:39:32.353Z,5.10
2017-08-31T06:41:59.836Z,4.63
2017-08-31T06:44:27.349Z,6.03
2017-08-31T06:46:54.845Z,5.80
2017-08-31T06:49:22.316Z,4.90
2017-08-31T06:51:49.826Z,5.50
2017-08-31T06:54:17.293Z,5.67
2017-08-31T06:56:44.793Z,6.90
2017-08-31T06:59:12.277Z,4.93
2017-08-31T07:01:39.760Z,7.07
2017-08-31T07:04:07.252Z,7.43
2017-08-31T07:06:34.728Z,7.63
2017-08-31T07:09:02.233Z,6.10
2017-08-31T07:11:29.708Z,12.83
2017-08-31T07:13:57.200Z,7.53
2017-08-31T07:16:24.695Z,7.07
2017-08-31T07:18:52.185Z,6.77
2017-08-31T07:21:19.652Z,6.33
2017-08-31T07:23:47.149Z,4.07
2017-08-31T07:26:14.633Z,4.70
2017-08-31T07:28:42.105Z,6.30
2017-08-31T07:31:09.588Z,4.03
2017-08-31T07:33:37.065Z,2.83
2017-08-31T07:36:04.608Z,7.53
2017-08-31T07:38:32.092Z,3.03
2017-08-31T07:40:59.552Z,1.63
2017-08-31T07:43:27.048Z,2.90
2017-08-31T07:45:54.537Z,1.50
2017-08-31T07:48:22.029Z,1.53
2017-08-31T07:50:49.501Z,2.50
2017-08-31T07:53:17.152Z,1.20
2017-08-31T07:55:44.657Z,3.50
2017-08-31T07:58:12.134Z,2.10
2017-08-31T08:00:39.644Z,1.40
2017-08-31T08:03:07.108Z,1.60
2017-08-31T08:05:34.612Z,1.90
2017-08-31T08:08:02.089Z,1.40
2017-08-31T08:10:29.588Z,1.10
2017-08-31T08:12:57.076Z,1.87
2017-08-31T08:15:24.549Z,2.80
2017-08-31T08:17:52.051Z,1.00
2017-08-31T08:20:19.539Z,1.23
2017-08-31T08:22:47.006Z,1.90
2017-08-31T08:25:14.496Z,1.47
2017-08-31T08:27:41.978Z,1.17
2017-08-31T08:30:09.513Z,4.40
2017-08-31T08:32:36.985Z,1.20
2017-08-31T08:35:04.489Z,1.50
2017-08-31T08:37:31.953Z,4.23
2017-08-31T08:39:59.452Z,3.23
2017-08-31T08:42:26.924Z,1.37
2017-08-31T08:44:54.400Z,1.07
2017-08-31T08:47:21.913Z,0.97
2017-08-31T08:49:49.421Z,2.23
2017-08-31T08:52:16.921Z,1.90
2017-08-31T08:54:44.398Z,1.20
2017-08-31T08:57:11.897Z,2.07
2017-08-31T08:59:39.389Z,2.10
2017-08-31T09:02:06.888Z,1.47
2017-08-31T09:04:34.356Z,1.10
2017-08-31T09:07:01.865Z,0.80
2017-08-31T09:09:29.332Z,1.63
2017-08-31T09:11:56.808Z,1.10
2017-08-31T09:14:24.293Z,0.90
2017-08-31T09:16:51.767Z,1.27
2017-08-31T09:19:19.280Z,1.60
2017-08-31T09:21:46.787Z,1.23
2017-08-31T09:24:14.287Z,1.00
2017-08-31T09:26:41.760Z,0.80
2017-08-31T09:29:09.237Z,1.00
2017-08-31T09:31:36.726Z,1.27
2017-08-31T09:34:04.198Z,0.87
2017-08-31T09:36:31.684Z,0.80
2017-08-31T09:38:59.167Z,1.03
2017-08-31T09:41:26.643Z,0.90
2017-08-31T09:43:54.132Z,0.80
2017-08-31T09:46:21.715Z,1.73
2017-08-31T09:48:49.242Z,1.03
2017-08-31T09:51:16.712Z,0.60
2017-08-31T09:53:44.213Z,0.80
2017-08-31T09:56:11.705Z,0.80
2017-08-31T09:58:39.190Z,0.70
2017-08-31T10:01:06.677Z,0.93
2017-08-31T10:03:34.160Z,0.70
2017-08-31T10:06:01.657Z,0.80
2017-08-31T10:08:29.157Z,1.40
2017-08-31T10:10:56.645Z,0.60
2017-08-31T10:13:24.130Z,0.70
2017-08-31T10:15:51.628Z,0.80
2017-08-31T10:18:19.112Z,0.77
2017-08-31T10:20:46.584Z,1.37
2017-08-31T10:23:15.118Z,1.07
2017-08-31T10:25:42.592Z,0.80
2017-08-31T10:28:10.098Z,1.43
2017-08-31T10:30:37.576Z,0.60
2017-08-31T10:33:05.068Z,1.20
2017-08-31T10:35:32.544Z,0.90
2017-08-31T10:38:00.037Z,3.13
2017-08-31T10:40:27.534Z,0.70
2017-08-31T10:42:55.013Z,0.80
2017-08-31T10:45:22.517Z,0.70
2017-08-31T10:47:49.981Z,1.23
2017-08-31T10:50:17.472Z,1.27
2017-08-31T10:52:44.966Z,3.90
2017-08-31T10:55:12.440Z,0.70
2017-08-31T10:57:39.947Z,0.80
2017-08-31T11:00:07.417Z,0.77
2017-08-31T11:02:34.907Z,1.23
2017-08-31T11:05:02.380Z,0.60
2017-08-31T11:07:29.865Z,1.43
2017-08-31T11:09:57.368Z,1.87
2017-08-31T11:12:24.851Z,2.50
2017-08-31T11:14:52.330Z,0.97
2017-08-31T11:17:19.832Z,0.80
2017-08-31T11:19:47.335Z,0.60
2017-08-31T11:22:14.811Z,0.70
2017-08-31T11:24:42.300Z,0.70
2017-08-31T11:27:09.836Z,0.77
2017-08-31T11:29:37.378Z,0.80
2017-08-31T11:32:04.809Z,0.60
2017-08-31T11:34:32.332Z,0.70
2017-08-31T11:36:59.815Z,0.60
2017-08-31T11:39:27.219Z,1.03
2017-08-31T11:41:54.708Z,1.00
2017-08-31T11:44:22.187Z,0.70
2017-08-31T11:46:49.693Z,0.70
2017-08-31T11:49:17.175Z,0.70
2017-08-31T11:51:44.645Z,0.80
2017-08-31T11:54:12.131Z,0.70
2017-08-31T11:56:39.604Z,0.63
2017-08-31T11:59:07.110Z,0.70
2017-08-31T12:01:34.645Z,0.60
2017-08-31T12:04:02.167Z,0.80
2017-08-31T12:06:29.648Z,0.73
2017-08-31T12:08:57.152Z,0.70
2017-08-31T12:11:24.625Z,0.80
2017-08-31T12:13:52.108Z,0.70
2017-08-31T12:16:19.597Z,0.77
2017-08-31T12:18:47.074Z,1.00
2017-08-31T12:21:14.612Z,0.90
2017-08-31T12:23:42.089Z,1.10
2017-08-31T12:26:09.590Z,1.07
2017-08-31T12:28:37.085Z,0.70
2017-08-31T12:31:04.577Z,0.80
2017-08-31T12:33:32.083Z,0.90
2017-08-31T12:35:59.571Z,1.33
2017-08-31T12:38:27.060Z,1.00
2017-08-31T12:40:54.551Z,1.40
2017-08-31T12:43:22.061Z,1.13
2017-08-31T12:45:49.584Z,1.30
2017-08-31T12:48:17.065Z,1.13
2017-08-31T12:50:44.592Z,1.00
2017-08-31T12:53:12.060Z,0.90
2017-08-31T12:55:39.608Z,0.90
2017-08-31T12:58:07.077Z,1.83
2017-08-31T13:00:34.569Z,1.27
2017-08-31T13:03:02.037Z,1.10
2017-08-31T13:05:29.512Z,1.10
2017-08-31T13:07:57.011Z,0.97
2017-08-31T13:10:24.484Z,1.23
2017-08-31T13:12:51.985Z,1.10
2017-08-31T13:15:20.228Z,1.30
2017-08-31T13:17:47.752Z,1.07
2017-08-31T13:20:15.239Z,1.10
2017-08-31T13:22:42.728Z,1.10
2017-08-31T13:25:10.225Z,1.33
2017-08-31T13:27:37.713Z,0.97
2017-08-31T13:30:05.220Z,1.30
2017-08-31T13:32:32.688Z,1.40
2017-08-31T13:35:00.217Z,1.40
2017-08-31T13:37:27.708Z,1.33
2017-08-31T13:39:55.220Z,1.30
2017-08-31T13:42:22.704Z,1.63
2017-08-31T13:44:50.270Z,2.53
2017-08-31T13:47:17.737Z,1.30
2017-08-31T13:49:45.269Z,1.57
2017-08-31T13:52:12.737Z,1.90
2017-08-31T13:54:40.232Z,1.63
2017-08-31T13:57:07.708Z,2.33
2017-08-31T13:59:35.248Z,2.93
2017-08-31T14:02:02.733Z,2.80
2017-08-31T14:04:30.229Z,1.50
2017-08-31T14:06:57.737Z,1.67
2017-08-31T14:09:25.233Z,1.20
2017-08-31T14:11:52.738Z,3.33
2017-08-31T14:14:20.220Z,3.13
2017-08-31T14:16:47.693Z,3.63
2017-08-31T14:19:15.226Z,5.03
2017-08-31T14:21:42.707Z,2.80
2017-08-31T14:24:10.253Z,3.10
2017-08-31T14:26:37.738Z,1.93
2017-08-31T14:29:05.284Z,2.53
2017-08-31T14:31:32.763Z,2.90
2017-08-31T14:34:00.249Z,1.60
2017-08-31T14:36:28.283Z,2.07
2017-08-31T14:38:55.780Z,1.70
2017-08-31T14:41:23.281Z,1.30
2017-08-31T14:43:50.760Z,1.77
2017-08-31T14:46:18.237Z,2.10
2017-08-31T14:48:45.728Z,2.10
2017-08-31T14:51:13.196Z,2.20
2017-08-31T14:53:40.665Z,2.00
2017-08-31T14:56:08.164Z,1.70
2017-08-31T14:58:35.674Z,2.20
2017-08-31T15:01:03.156Z,1.73
2017-08-31T15:03:30.633Z,2.90
2017-08-31T15:05:58.129Z,1.87
2017-08-31T15:08:25.603Z,2.03
2017-08-31T15:10:53.105Z,1.90
2017-08-31T15:13:20.574Z,2.37
2017-08-31T15:15:48.065Z,1.73
2017-08-31T15:18:15.539Z,2.20
2017-08-31T15:20:43.020Z,2.07
2017-08-31T15:23:10.484Z,2.17
2017-08-31T15:25:37.989Z,3.20
2017-08-31T15:28:05.460Z,2.37
2017-08-31T15:30:32.965Z,2.80
2017-08-31T15:33:00.446Z,2.13
2017-08-31T15:35:27.917Z,2.70
2017-08-31T15:37:55.404Z,2.57
2017-08-31T15:40:22.916Z,3.83
2017-08-31T15:42:50.449Z,3.53
2017-08-31T15:45:17.929Z,7.10
2017-08-31T15:47:45.420Z,1.77
2017-08-31T15:50:12.924Z,2.37
2017-08-31T15:52:40.399Z,2.40
2017-08-31T15:55:07.905Z,3.30
2017-08-31T15:57:35.380Z,2.83
2017-08-31T16:00:02.868Z,3.37
2017-08-31T16:02:30.373Z,2.78
2017-08-31T16:04:58.833Z,2.60
2017-08-31T16:07:26.333Z,4.00
2017-08-31T16:09:53.818Z,3.67
2017-08-31T16:12:21.326Z,3.70
2017-08-31T16:14:48.820Z,2.93
2017-08-31T16:17:16.298Z,3.70
2017-08-31T16:19:43.792Z,3.72
2017-08-31T16:22:11.289Z,3.30
2017-08-31T16:24:38.762Z,3.80
2017-08-31T16:27:06.245Z,4.15
2017-08-31T16:29:33.736Z,4.73
2017-08-31T16:32:01.206Z,4.40
2017-08-31T16:34:28.696Z,6.00
2017-08-31T16:36:56.477Z,5.67
2017-08-31T16:39:24.730Z,4.87
2017-08-31T16:41:52.201Z,4.00
2017-08-31T16:44:19.697Z,4.30
2017-08-31T16:46:47.188Z,6.07
2017-08-31T16:49:14.660Z,3.77
2017-08-31T16:51:42.189Z,3.60
2017-08-31T16:54:09.663Z,3.37
2017-08-31T16:56:37.161Z,4.40
2017-08-31T16:59:04.664Z,4.23
2017-08-31T17:01:32.141Z,3.33
2017-08-31T17:03:59.654Z,3.73
2017-08-31T17:06:27.136Z,3.70
2017-08-31T17:08:54.662Z,4.97
2017-08-31T17:11:22.140Z,5.10
2017-08-31T17:13:49.640Z,4.17
2017-08-31T17:16:17.128Z,3.77
2017-08-31T17:18:44.621Z,4.20
2017-08-31T17:21:12.112Z,4.10
2017-08-31T17:23:39.604Z,4.47
2017-08-31T17:26:07.092Z,4.20
2017-08-31T17:28:34.593Z,5.28
2017-08-31T17:31:02.207Z,4.40
2017-08-31T17:33:29.680Z,4.63
2017-08-31T17:35:57.185Z,4.03
2017-08-31T17:38:24.660Z,4.30
2017-08-31T17:40:52.179Z,3.97
2017-08-31T17:43:19.658Z,4.90
2017-08-31T17:45:47.159Z,4.40
2017-08-31T17:48:14.630Z,4.37
2017-08-31T17:50:42.145Z,3.33
2017-08-31T17:53:09.625Z,5.37
2017-08-31T17:55:37.117Z,5.30
2017-08-31T17:58:04.667Z,4.50
2017-08-31T18:00:32.160Z,4.82
2017-08-31T18:02:59.663Z,4.63
2017-08-31T18:05:27.148Z,4.73
2017-08-31T18:07:54.639Z,4.83
2017-08-31T18:10:22.124Z,4.07
2017-08-31T18:12:49.633Z,4.12
2017-08-31T18:15:17.146Z,4.40
2017-08-31T18:17:44.640Z,4.20
2017-08-31T18:20:12.132Z,3.00
2017-08-31T18:22:39.636Z,3.37
2017-08-31T18:25:07.116Z,3.80
2017-08-31T18:27:34.614Z,3.80
2017-08-31T18:30:02.121Z,3.47
2017-08-31T18:32:29.672Z,3.80
2017-08-31T18:34:57.200Z,3.92
2017-08-31T18:37:24.700Z,3.90
2017-08-31T18:39:52.229Z,3.70
2017-08-31T18:42:19.731Z,5.10
2017-08-31T18:44:47.229Z,2.83
2017-08-31T18:47:14.746Z,3.43
2017-08-31T18:49:42.226Z,3.83
2017-08-31T18:52:09.746Z,3.03
2017-08-31T18:54:37.225Z,2.85
2017-08-31T18:57:04.937Z,3.10
2017-08-31T18:59:33.175Z,4.00
2017-08-31T19:02:00.668Z,3.03
2017-08-31T19:04:28.198Z,2.60
2017-08-31T19:06:55.667Z,4.13
2017-08-31T19:09:23.180Z,2.10
2017-08-31T19:11:50.785Z,2.70
2017-08-31T19:14:18.301Z,2.53
2017-08-31T19:16:45.786Z,3.30
2017-08-31T19:19:13.287Z,2.70
2017-08-31T19:21:40.762Z,2.93
2017-08-31T19:24:08.253Z,3.58
2017-08-31T19:26:35.755Z,6.63
2017-08-31T19:29:03.238Z,3.73
2017-08-31T19:31:30.748Z,2.50
2017-08-31T19:33:58.224Z,3.10
2017-08-31T19:36:25.746Z,7.32
2017-08-31T19:38:53.229Z,2.77
2017-08-31T19:41:20.722Z,2.85
2017-08-31T19:43:48.229Z,3.00
2017-08-31T19:46:15.725Z,2.20
2017-08-31T19:48:43.219Z,3.03
2017-08-31T19:51:10.701Z,3.33
2017-08-31T19:53:38.193Z,3.20
2017-08-31T19:56:05.687Z,3.20
2017-08-31T19:58:33.205Z,2.30
2017-08-31T20:01:00.777Z,2.90
2017-08-31T20:03:28.261Z,3.03
2017-08-31T20:05:55.752Z,2.50
2017-08-31T20:08:23.237Z,2.25
2017-08-31T20:10:50.760Z,2.42
2017-08-31T20:13:18.247Z,2.00
2017-08-31T20:15:45.775Z,2.13
2017-08-31T20:18:13.293Z,2.73
2017-08-31T20:20:40.787Z,2.00
2017-08-31T20:23:08.289Z,2.20
2017-08-31T20:25:35.812Z,2.20
2017-08-31T20:28:03.279Z,2.13
2017-08-31T20:30:30.773Z,1.80
2017-08-31T20:32:58.276Z,2.57
2017-08-31T20:35:25.765Z,2.17
2017-08-31T20:37:53.240Z,4.23
2017-08-31T20:40:20.745Z,5.20
2017-08-31T20:42:48.227Z,4.90
2017-08-31T20:45:15.744Z,3.77
2017-08-31T20:47:43.216Z,4.60
2017-08-31T20:50:10.732Z,4.27
2017-08-31T20:52:38.220Z,4.57
2017-08-31T20:55:05.718Z,6.50
2017-08-31T20:57:33.189Z,4.23
2017-08-31T21:00:00.684Z,3.07
2017-08-31T21:02:28.154Z,3.23
2017-08-31T21:04:55.629Z,2.80
2017-08-31T21:07:23.121Z,2.77
2017-08-31T21:09:50.645Z,5.10
2017-08-31T21:12:18.134Z,5.68
2017-08-31T21:14:45.613Z,4.03
2017-08-31T21:17:13.104Z,5.27
2017-08-31T21:19:40.573Z,3.20
2017-08-31T21:22:08.048Z,4.67
2017-08-31T21:24:35.548Z,3.00
2017-08-31T21:27:03.018Z,4.73
2017-08-31T21:29:30.520Z,4.83
2017-08-31T21:31:58.006Z,4.23
2017-08-31T21:34:25.508Z,5.43
2017-08-31T21:36:52.981Z,3.00
2017-08-31T21:39:20.495Z,3.07
2017-08-31T21:41:47.964Z,3.13
2017-08-31T21:44:15.552Z,2.77
2017-08-31T21:46:43.048Z,2.93
2017-08-31T21:49:10.537Z,4.17
2017-08-31T21:51:38.033Z,3.33
2017-08-31T21:54:05.520Z,4.30
2017-08-31T21:56:33.017Z,3.40
2017-08-31T21:59:00.614Z,4.27
2017-08-31T22:01:28.104Z,3.40
2017-08-31T22:03:55.584Z,3.80
2017-08-31T22:06:23.086Z,5.10
2017-08-31T22:08:50.584Z,6.40
2017-08-31T22:11:18.077Z,5.17
2017-08-31T22:13:45.578Z,4.37
2017-08-31T22:16:13.053Z,4.90
2017-08-31T22:18:40.577Z,4.40
2017-08-31T22:21:08.051Z,4.20
2017-08-31T22:23:35.526Z,5.43
2017-08-31T22:26:03.027Z,4.47
2017-08-31T22:28:30.610Z,5.10
2017-08-31T22:30:58.101Z,4.27
2017-08-31T22:33:25.600Z,4.65
2017-08-31T22:35:53.086Z,4.73
2017-08-31T22:38:20.643Z,4.20
2017-08-31T22:40:48.150Z,5.63
2017-08-31T22:43:16.228Z,4.20
2017-08-31T22:45:43.720Z,4.77
2017-08-31T22:48:11.225Z,5.07
2017-08-31T22:50:38.721Z,4.77
2017-08-31T22:53:06.202Z,4.50
2017-08-31T22:55:33.699Z,4.50
2017-08-31T22:58:13.755Z,4.70
2017-08-31T23:00:41.261Z,5.35
2017-08-31T23:03:08.773Z,4.35
2017-08-31T23:05:36.265Z,4.90
2017-08-31T23:08:03.766Z,6.13
2017-08-31T23:10:31.252Z,7.27
2017-08-31T23:12:58.733Z,5.70
2017-08-31T23:15:26.232Z,4.60
2017-08-31T23:17:53.709Z,6.50
2017-08-31T23:20:21.198Z,5.20
2017-08-31T23:22:48.668Z,6.67
2017-08-31T23:25:16.189Z,6.13
2017-08-31T23:27:43.678Z,8.33
2017-08-31T23:30:11.152Z,5.03
2017-08-31T23:32:38.640Z,7.13
2017-08-31T23:35:06.132Z,5.63
2017-08-31T23:37:33.616Z,4.70
2017-08-31T23:40:01.100Z,5.53
2017-08-31T23:42:28.597Z,4.90
2017-08-31T23:44:56.107Z,5.90
2017-08-31T23:47:23.596Z,6.23
2017-08-31T23:49:51.080Z,7.37
2017-08-31T23:52:18.561Z,6.93
2017-08-31T23:54:46.841Z,6.95
2017-08-31T23:57:14.327Z,7.00
2017-08-31T23:59:41.829Z,7.43
